Portada
METAR-TAF:

METAR-TAF

Aeroports :

Agri-Science Center

Chillicothe, Missouri, Estats Units d'Amèrica

latitud: 39-49N, longitud: 093-35W, altitud: 234 m

Observació

L'informe es va fer fa 57 minuts, a les 16:51 UTC
Vent 5 kt amb direcció variable
Temperatura 30°C
Humitat 66%
Pressió 1025 hPa

METAR: KCDJ 201651Z AUTO VRB05KT 30/23 A3026 RMK AO1 SLP232 T03000228

Hora: 12:48 (17:48 UTC)


TAF: manca

Observacions i pronòstics meteorològics de més de 4000 aeroports (METAR i TAF).

Les estacions disponibles són els punts grocs i vermells al mapa.

Posi el ratolí al punt desitjat per veure el nom de l'estació.

Feu clic per veure les observacions i els pronòstics meteorològics.

Per canviar el mapa: feu clic els botons verds amb una creu de color negre per apropar; al botó verd amb un guió per allunyar la imatge; o en les fletxes verdes per a mapes adjacents.


METAR-TAF: